sensor_id;sensor_type;location;lat;lon;timestamp;P1;durP1;ratioP1;P2;durP2;ratioP2
64387;SDS011;50709;52.648;4.764;2022-09-21T03:59:36;4.73;;;2.90;;
64387;SDS011;50709;52.648;4.764;2022-09-21T04:02:01;4.85;;;3.00;;
64387;SDS011;50709;52.648;4.764;2022-09-21T04:04:27;7.05;;;3.05;;
64387;SDS011;50709;52.648;4.764;2022-09-21T04:53:06;4.57;;;2.80;;
64387;SDS011;50709;52.648;4.764;2022-09-21T05:44:13;7.70;;;3.30;;
64387;SDS011;50709;52.648;4.764;2022-09-21T06:40:51;9.98;;;6.20;;
64387;SDS011;50709;52.648;4.764;2022-09-21T07:46:20;7.95;;;4.00;;
64387;SDS011;50709;52.648;4.764;2022-09-21T07:48:45;6.05;;;3.88;;
64387;SDS011;50709;52.648;4.764;2022-09-21T07:51:11;9.18;;;4.30;;
64387;SDS011;50709;52.648;4.764;2022-09-21T07:53:39;6.05;;;2.90;;
64387;SDS011;50709;52.648;4.764;2022-09-21T07:56:10;7.15;;;3.17;;
64387;SDS011;50709;52.648;4.764;2022-09-21T08:01:21;7.43;;;3.38;;
64387;SDS011;50709;52.648;4.764;2022-09-21T08:40:18;4.13;;;2.42;;
64387;SDS011;50709;52.648;4.764;2022-09-21T08:42:47;7.80;;;3.50;;
64387;SDS011;50709;52.648;4.764;2022-09-21T08:45:27;9.90;;;3.33;;
64387;SDS011;50709;52.648;4.764;2022-09-21T08:48:00;7.13;;;2.95;;
64387;SDS011;50709;52.648;4.764;2022-09-21T08:50:49;8.52;;;2.88;;
64387;SDS011;50709;52.648;4.764;2022-09-21T09:59:36;3.50;;;1.90;;
64387;SDS011;50709;52.648;4.764;2022-09-21T10:02:17;4.63;;;1.90;;
64387;SDS011;50709;52.648;4.764;2022-09-21T19:34:13;8.63;;;3.55;;
64387;SDS011;50709;52.648;4.764;2022-09-21T19:36:40;6.22;;;3.80;;
64387;SDS011;50709;52.648;4.764;2022-09-21T19:39:07;8.30;;;3.63;;
64387;SDS011;50709;52.648;4.764;2022-09-21T19:41:42;7.40;;;3.53;;
64387;SDS011;50709;52.648;4.764;2022-09-21T19:52:15;6.20;;;3.63;;
64387;SDS011;50709;52.648;4.764;2022-09-21T20:30:46;7.70;;;4.30;;
64387;SDS011;50709;52.648;4.764;2022-09-21T20:52:40;8.70;;;4.05;;
64387;SDS011;50709;52.648;4.764;2022-09-21T20:55:08;6.22;;;4.20;;
64387;SDS011;50709;52.648;4.764;2022-09-21T20:57:35;8.00;;;4.10;;
64387;SDS011;50709;52.648;4.764;2022-09-21T21:00:04;7.53;;;4.13;;
64387;SDS011;50709;52.648;4.764;2022-09-21T21:02:31;7.75;;;4.28;;
64387;SDS011;50709;52.648;4.764;2022-09-21T21:04:57;7.75;;;4.03;;
64387;SDS011;50709;52.648;4.764;2022-09-21T21:07:23;7.55;;;3.53;;
64387;SDS011;50709;52.648;4.764;2022-09-21T21:09:49;6.75;;;4.18;;
64387;SDS011;50709;52.648;4.764;2022-09-21T21:12:14;7.43;;;4.32;;
64387;SDS011;50709;52.648;4.764;2022-09-21T21:14:40;6.97;;;4.15;;
64387;SDS011;50709;52.648;4.764;2022-09-21T21:17:06;8.82;;;4.20;;
64387;SDS011;50709;52.648;4.764;2022-09-21T21:19:31;7.82;;;4.00;;
64387;SDS011;50709;52.648;4.764;2022-09-21T21:21:57;6.35;;;3.83;;
64387;SDS011;50709;52.648;4.764;2022-09-21T21:24:22;9.55;;;4.20;;
64387;SDS011;50709;52.648;4.764;2022-09-21T21:27:13;8.23;;;4.00;;
64387;SDS011;50709;52.648;4.764;2022-09-21T21:29:45;7.72;;;3.92;;
64387;SDS011;50709;52.648;4.764;2022-09-21T21:32:18;9.20;;;4.22;;
64387;SDS011;50709;52.648;4.764;2022-09-21T21:34:47;7.88;;;4.47;;
64387;SDS011;50709;52.648;4.764;2022-09-21T21:37:15;7.20;;;4.03;;
64387;SDS011;50709;52.648;4.764;2022-09-21T21:39:45;8.50;;;4.35;;
64387;SDS011;50709;52.648;4.764;2022-09-21T21:42:11;7.35;;;4.35;;
64387;SDS011;50709;52.648;4.764;2022-09-21T21:44:37;8.45;;;4.15;;
64387;SDS011;50709;52.648;4.764;2022-09-21T21:47:03;8.63;;;4.05;;
64387;SDS011;50709;52.648;4.764;2022-09-21T21:49:28;6.53;;;3.90;;
64387;SDS011;50709;52.648;4.764;2022-09-21T21:51:54;7.25;;;4.10;;
64387;SDS011;50709;52.648;4.764;2022-09-21T21:54:20;9.48;;;4.32;;
64387;SDS011;50709;52.648;4.764;2022-09-21T21:56:47;11.70;;;6.20;;
64387;SDS011;50709;52.648;4.764;2022-09-21T21:59:16;8.80;;;4.88;;
64387;SDS011;50709;52.648;4.764;2022-09-21T22:01:42;8.07;;;4.03;;
64387;SDS011;50709;52.648;4.764;2022-09-21T22:04:08;7.03;;;4.25;;
64387;SDS011;50709;52.648;4.764;2022-09-21T22:06:34;8.02;;;4.50;;
64387;SDS011;50709;52.648;4.764;2022-09-21T22:09:01;8.40;;;4.30;;
64387;SDS011;50709;52.648;4.764;2022-09-21T22:11:28;9.35;;;4.38;;
64387;SDS011;50709;52.648;4.764;2022-09-21T22:13:55;6.60;;;4.38;;
64387;SDS011;50709;52.648;4.764;2022-09-21T22:16:22;8.48;;;4.45;;
64387;SDS011;50709;52.648;4.764;2022-09-21T22:18:49;6.03;;;4.32;;
64387;SDS011;50709;52.648;4.764;2022-09-21T22:21:17;7.40;;;4.15;;
64387;SDS011;50709;52.648;4.764;2022-09-21T22:23:45;7.15;;;4.40;;
64387;SDS011;50709;52.648;4.764;2022-09-21T22:26:14;11.55;;;5.80;;
64387;SDS011;50709;52.648;4.764;2022-09-21T22:28:41;8.23;;;4.60;;
64387;SDS011;50709;52.648;4.764;2022-09-21T22:31:09;9.60;;;4.35;;
64387;SDS011;50709;52.648;4.764;2022-09-21T22:33:36;9.15;;;4.90;;
64387;SDS011;50709;52.648;4.764;2022-09-21T22:36:11;8.85;;;4.40;;
64387;SDS011;50709;52.648;4.764;2022-09-21T22:38:41;7.28;;;4.43;;
64387;SDS011;50709;52.648;4.764;2022-09-21T22:41:08;7.35;;;4.30;;
64387;SDS011;50709;52.648;4.764;2022-09-21T22:43:35;6.68;;;4.25;;
64387;SDS011;50709;52.648;4.764;2022-09-21T22:46:01;8.52;;;5.15;;
64387;SDS011;50709;52.648;4.764;2022-09-21T22:48:27;13.02;;;6.68;;
64387;SDS011;50709;52.648;4.764;2022-09-21T22:50:52;9.07;;;5.35;;
64387;SDS011;50709;52.648;4.764;2022-09-21T22:53:18;9.13;;;5.32;;
64387;SDS011;50709;52.648;4.764;2022-09-21T22:55:44;8.80;;;5.03;;
64387;SDS011;50709;52.648;4.764;2022-09-21T22:58:09;7.90;;;5.35;;
64387;SDS011;50709;52.648;4.764;2022-09-21T23:00:35;10.75;;;5.50;;
64387;SDS011;50709;52.648;4.764;2022-09-21T23:03:00;10.82;;;6.70;;
64387;SDS011;50709;52.648;4.764;2022-09-21T23:05:26;9.55;;;4.88;;
64387;SDS011;50709;52.648;4.764;2022-09-21T23:07:51;7.13;;;4.60;;
64387;SDS011;50709;52.648;4.764;2022-09-21T23:10:19;7.88;;;4.70;;
64387;SDS011;50709;52.648;4.764;2022-09-21T23:12:46;7.78;;;4.80;;
64387;SDS011;50709;52.648;4.764;2022-09-21T23:15:13;11.07;;;5.20;;
64387;SDS011;50709;52.648;4.764;2022-09-21T23:17:39;7.90;;;4.95;;
64387;SDS011;50709;52.648;4.764;2022-09-21T23:20:05;8.43;;;4.80;;
64387;SDS011;50709;52.648;4.764;2022-09-21T23:22:31;8.27;;;5.05;;
64387;SDS011;50709;52.648;4.764;2022-09-21T23:24:56;8.10;;;5.03;;
64387;SDS011;50709;52.648;4.764;2022-09-21T23:27:22;9.68;;;5.00;;
64387;SDS011;50709;52.648;4.764;2022-09-21T23:29:47;9.38;;;4.72;;
64387;SDS011;50709;52.648;4.764;2022-09-21T23:32:12;7.43;;;4.40;;
